Terminal Aerodrome Forecast
Issued by NWS

Home | Current Version | Previous Version | Text Only | Print | Product List | Glossary On
Versions: 1 2 3 4 5 6 7 8 9 10 11 12 13 14 15
761
FTUS42 TJSJ 011738
TAFNCM
TAF
TNCM 011738Z 0118/0218 08015G25KT P6SM SCT019=

USA.gov is the U.S. government's official web portal to all federal, state and local government web resources and services.